Griffith, Australia
Current Conditions -  °F | °C
As of 10:00 AM on Thursday 27 Nov 2014 (Local Time) from YGTH Reporting Station
Clear Clear  
Wind Chill: 68°   Ceiling: Unl
Heat Index: 68°   Visibility: 6mi
Dew Point: 48°   Wind: 7mph
Humidity: 49%   Direction: 170°S
Pressure: 30.15"   Gusts: NA
Location:  34.32°S, 146.07°E
Report Text: YGTH 262300Z AUTO 17006KT 9999 // NCD 20/09 Q1021
Loading
Personal Weather Stations






























Interactive Weather Map New forecast layout! Learn more

10-Day Weather Forecast

Advertisements
Track Severe Weather on mobile